createdAt,value
2023-03-05T00:00:55.661Z,5.40
2023-03-05T00:03:11.131Z,5.80
2023-03-05T00:05:23.703Z,10.70
2023-03-05T00:07:36.281Z,12.90
2023-03-05T00:09:48.858Z,12.50
2023-03-05T00:12:01.457Z,11.50
2023-03-05T00:14:14.103Z,11.10
2023-03-05T00:16:28.066Z,7.60
2023-03-05T00:18:41.755Z,6.00
2023-03-05T00:20:54.524Z,4.10
2023-03-05T00:23:07.114Z,4.10
2023-03-05T00:25:19.654Z,4.00
2023-03-05T00:27:32.197Z,4.00
2023-03-05T00:29:44.811Z,3.90
2023-03-05T00:31:57.346Z,4.10
2023-03-05T00:34:13.712Z,3.80
2023-03-05T00:36:26.771Z,3.90
2023-03-05T00:38:39.346Z,4.00
2023-03-05T00:40:51.945Z,4.20
2023-03-05T00:43:05.621Z,4.10
2023-03-05T00:45:18.282Z,3.70
2023-03-05T00:47:30.878Z,3.90
2023-03-05T00:49:43.459Z,3.80
2023-03-05T00:51:56.034Z,4.50
2023-03-05T00:54:09.788Z,3.50
2023-03-05T00:56:22.420Z,3.40
2023-03-05T00:58:35.186Z,3.00
2023-03-05T01:00:50.570Z,2.80
2023-03-05T01:03:03.640Z,2.90
2023-03-05T01:05:16.313Z,6.30
2023-03-05T01:07:28.890Z,6.80
2023-03-05T01:09:41.475Z,6.70
2023-03-05T01:11:54.541Z,8.40
2023-03-05T01:14:07.258Z,6.60
2023-03-05T01:16:19.934Z,5.90
2023-03-05T01:18:33.110Z,5.80
2023-03-05T01:20:45.920Z,5.30
2023-03-05T01:22:59.266Z,5.30
2023-03-05T01:25:13.846Z,5.00
2023-03-05T01:27:26.512Z,5.00
2023-03-05T01:29:39.152Z,5.00
2023-03-05T01:31:51.781Z,5.30
2023-03-05T01:34:04.405Z,5.10
2023-03-05T01:36:17.107Z,5.80
2023-03-05T01:38:29.735Z,6.10
2023-03-05T01:40:43.712Z,6.40
2023-03-05T01:43:00.885Z,7.30
2023-03-05T01:45:18.624Z,7.20
2023-03-05T01:47:31.156Z,7.70
2023-03-05T01:49:43.739Z,7.60
2023-03-05T01:52:02.613Z,7.70
2023-03-05T01:54:18.432Z,8.10
2023-03-05T01:56:31.070Z,8.10
2023-03-05T01:58:45.074Z,8.40
2023-03-05T02:00:57.641Z,7.70
2023-03-05T02:03:11.556Z,6.90
2023-03-05T02:05:30.712Z,5.90
2023-03-05T02:07:45.122Z,5.80
2023-03-05T02:09:57.739Z,4.90
2023-03-05T02:12:12.415Z,4.90
2023-03-05T02:14:25.938Z,4.70
2023-03-05T02:16:39.352Z,4.40
2023-03-05T02:18:52.048Z,4.10
2023-03-05T02:21:08.977Z,3.70
2023-03-05T02:23:22.660Z,3.50
2023-03-05T02:25:35.268Z,3.40
2023-03-05T02:28:13.477Z,3.30
2023-03-05T02:30:26.397Z,3.70
2023-03-05T02:32:39.051Z,3.60
2023-03-05T02:34:51.700Z,4.40
2023-03-05T02:37:08.952Z,4.40
2023-03-05T02:39:21.572Z,6.50
2023-03-05T02:41:34.190Z,6.80
2023-03-05T02:43:46.735Z,4.90
2023-03-05T02:45:59.425Z,4.10
2023-03-05T02:48:12.017Z,3.50
2023-03-05T02:50:26.646Z,3.40
2023-03-05T02:52:39.331Z,3.20
2023-03-05T02:54:52.649Z,2.90
2023-03-05T02:57:05.172Z,2.70
2023-03-05T02:59:17.828Z,2.80
2023-03-05T03:01:30.542Z,2.60
2023-03-05T03:03:43.069Z,2.50
2023-03-05T03:05:55.658Z,2.60
2023-03-05T03:08:08.416Z,2.10
2023-03-05T03:10:21.071Z,2.10
2023-03-05T03:12:38.215Z,2.50
2023-03-05T03:14:50.803Z,2.60
2023-03-05T03:17:03.617Z,2.70
2023-03-05T03:19:16.521Z,2.30
2023-03-05T03:21:29.167Z,2.30
2023-03-05T03:23:41.714Z,2.30
2023-03-05T03:25:54.285Z,2.60
2023-03-05T03:28:06.851Z,2.30
2023-03-05T03:30:19.527Z,2.90
2023-03-05T03:32:33.343Z,3.10
2023-03-05T03:34:48.097Z,2.90
2023-03-05T03:37:01.744Z,3.30
2023-03-05T03:39:15.105Z,2.70
2023-03-05T03:41:27.661Z,3.10
2023-03-05T03:43:40.206Z,3.70
2023-03-05T03:45:52.886Z,3.70
2023-03-05T03:48:05.728Z,3.90
2023-03-05T03:50:18.983Z,3.90
2023-03-05T03:52:31.567Z,3.30
2023-03-05T03:54:44.166Z,3.70
2023-03-05T03:56:56.759Z,3.60
2023-03-05T03:59:09.402Z,3.70
2023-03-05T04:01:22.081Z,3.70
2023-03-05T04:03:34.664Z,4.00
2023-03-05T04:05:47.245Z,4.10
2023-03-05T04:08:01.379Z,3.90
2023-03-05T04:10:13.972Z,4.10
2023-03-05T04:12:26.561Z,4.00
2023-03-05T04:14:39.091Z,3.50
2023-03-05T04:16:51.635Z,4.00
2023-03-05T04:19:04.217Z,3.70
2023-03-05T04:21:16.917Z,3.60
2023-03-05T04:23:29.559Z,3.50
2023-03-05T04:25:42.139Z,4.10
2023-03-05T04:27:54.638Z,4.10
2023-03-05T04:30:09.884Z,3.80
2023-03-05T04:32:26.022Z,4.20
2023-03-05T04:34:38.711Z,4.40
2023-03-05T04:36:51.268Z,4.00
2023-03-05T04:39:04.825Z,4.40
2023-03-05T04:41:17.657Z,4.30
2023-03-05T04:43:30.263Z,4.70
2023-03-05T04:45:44.114Z,4.70
2023-03-05T04:47:56.711Z,4.80
2023-03-05T04:50:09.796Z,5.10
2023-03-05T04:52:22.339Z,4.60
2023-03-05T04:54:34.969Z,4.40
2023-03-05T04:56:47.478Z,4.10
2023-03-05T04:59:00.325Z,3.70
2023-03-05T05:01:13.331Z,4.10
2023-03-05T05:03:25.897Z,3.60
2023-03-05T05:05:38.498Z,3.90
2023-03-05T05:07:55.198Z,3.50
2023-03-05T05:10:08.900Z,3.60
2023-03-05T05:12:21.459Z,3.90
2023-03-05T05:14:34.684Z,3.80
2023-03-05T05:16:47.317Z,3.60
2023-03-05T05:18:59.889Z,4.10
2023-03-05T05:21:13.855Z,3.80
2023-03-05T05:23:26.778Z,3.80
2023-03-05T05:25:39.515Z,3.80
2023-03-05T05:27:52.078Z,3.70
2023-03-05T05:30:05.893Z,3.50
2023-03-05T05:32:24.010Z,3.70
2023-03-05T05:34:36.625Z,3.60
2023-03-05T05:36:49.199Z,3.70
2023-03-05T05:39:01.795Z,3.50
2023-03-05T05:41:18.219Z,2.90
2023-03-05T05:43:31.185Z,2.90
2023-03-05T05:45:44.026Z,2.70
2023-03-05T05:47:56.730Z,2.80
2023-03-05T05:50:10.943Z,2.90
2023-03-05T05:52:23.542Z,3.10
2023-03-05T05:54:36.200Z,3.20
2023-03-05T05:56:48.731Z,3.10
2023-03-05T05:59:01.315Z,3.20
2023-03-05T06:01:33.442Z,3.90
2023-03-05T06:03:46.341Z,3.60
2023-03-05T06:05:58.955Z,4.10
2023-03-05T06:08:11.620Z,4.50
2023-03-05T06:10:24.270Z,4.80
2023-03-05T06:12:37.225Z,4.90
2023-03-05T06:14:49.785Z,5.20
2023-03-05T06:17:02.613Z,4.50
2023-03-05T06:19:16.137Z,5.00
2023-03-05T06:21:28.763Z,5.10
2023-03-05T06:23:42.672Z,5.80
2023-03-05T06:25:59.680Z,5.50
2023-03-05T06:28:12.403Z,5.60
2023-03-05T06:30:24.962Z,5.60
2023-03-05T06:32:37.631Z,6.20
2023-03-05T06:34:50.351Z,6.20
2023-03-05T06:37:03.022Z,6.00
2023-03-05T06:39:15.741Z,5.60
2023-03-05T06:41:30.133Z,5.90
2023-03-05T06:43:44.476Z,6.40
2023-03-05T06:46:12.851Z,6.30
2023-03-05T06:48:25.486Z,6.30
2023-03-05T06:50:38.239Z,5.90
2023-03-05T06:52:50.960Z,6.30
2023-03-05T06:55:03.703Z,6.80
2023-03-05T06:57:16.380Z,6.70
2023-03-05T06:59:29.007Z,6.20
2023-03-05T07:01:42.271Z,6.10
2023-03-05T07:03:55.624Z,6.10
2023-03-05T07:06:11.180Z,7.20
2023-03-05T07:08:23.818Z,6.00
2023-03-05T07:10:41.649Z,5.70
2023-03-05T07:12:54.202Z,5.70
2023-03-05T07:15:07.410Z,5.40
2023-03-05T07:17:19.937Z,5.40
2023-03-05T07:19:33.105Z,4.90
2023-03-05T07:21:45.675Z,5.10
2023-03-05T07:24:00.852Z,5.60
2023-03-05T07:26:13.503Z,5.90
2023-03-05T07:28:26.085Z,4.90
2023-03-05T07:30:38.689Z,4.60
2023-03-05T07:32:51.310Z,4.50
2023-03-05T07:35:04.122Z,4.70
2023-03-05T07:37:16.668Z,5.00
2023-03-05T07:39:29.281Z,4.50
2023-03-05T07:41:41.816Z,4.00
2023-03-05T07:43:54.840Z,3.80
2023-03-05T07:46:10.145Z,4.10
2023-03-05T07:48:25.336Z,3.70
2023-03-05T07:50:37.975Z,4.20
2023-03-05T07:52:50.600Z,3.20
2023-03-05T07:55:03.369Z,4.00
2023-03-05T07:57:15.992Z,3.60
2023-03-05T07:59:28.520Z,3.20
2023-03-05T08:01:41.556Z,3.10
2023-03-05T08:03:54.253Z,3.10
2023-03-05T08:06:07.917Z,2.10
2023-03-05T08:08:20.562Z,2.30
2023-03-05T08:10:34.539Z,1.90
2023-03-05T08:12:47.117Z,3.10
2023-03-05T08:14:59.726Z,2.50
2023-03-05T08:17:12.380Z,1.70
2023-03-05T08:19:24.994Z,2.20
2023-03-05T08:21:37.537Z,1.80
2023-03-05T08:23:50.127Z,1.70
2023-03-05T08:26:11.818Z,2.10
2023-03-05T08:28:24.336Z,2.10
2023-03-05T08:30:37.448Z,2.70
2023-03-05T08:32:50.162Z,3.30
2023-03-05T08:35:04.589Z,2.80
2023-03-05T08:37:17.084Z,2.50
2023-03-05T08:39:30.202Z,2.90
2023-03-05T08:41:42.920Z,2.70
2023-03-05T08:43:55.653Z,2.40
2023-03-05T08:46:08.295Z,2.70
2023-03-05T08:48:20.865Z,3.10
2023-03-05T08:50:33.450Z,3.00
2023-03-05T08:52:45.928Z,2.60
2023-03-05T08:54:58.484Z,3.70
2023-03-05T08:57:11.020Z,3.20
2023-03-05T08:59:23.524Z,2.90
2023-03-05T09:01:36.092Z,4.80
2023-03-05T09:03:48.614Z,3.30
2023-03-05T09:06:03.400Z,3.20
2023-03-05T09:08:16.036Z,2.60
2023-03-05T09:10:28.640Z,3.10
2023-03-05T09:12:42.071Z,3.30
2023-03-05T09:14:55.980Z,3.20
2023-03-05T09:17:09.056Z,3.40
2023-03-05T09:19:21.645Z,3.60
2023-03-05T09:21:34.907Z,2.80
2023-03-05T09:23:47.451Z,2.80
2023-03-05T09:26:00.014Z,3.10
2023-03-05T09:28:12.636Z,3.60
2023-03-05T09:30:25.213Z,4.20
2023-03-05T09:32:37.769Z,2.80
2023-03-05T09:34:50.455Z,7.00
2023-03-05T09:37:04.010Z,20.70
2023-03-05T09:39:16.966Z,24.80
2023-03-05T09:41:37.001Z,4.00
2023-03-05T09:44:10.928Z,3.40
2023-03-05T09:46:39.091Z,3.10
2023-03-05T09:48:57.023Z,2.90
2023-03-05T09:51:16.682Z,4.00
2023-03-05T09:53:38.778Z,3.00
2023-03-05T09:55:58.642Z,3.00
2023-03-05T09:58:16.113Z,3.00
2023-03-05T10:00:37.581Z,3.10
2023-03-05T10:02:58.351Z,3.70
2023-03-05T10:05:20.584Z,3.00
2023-03-05T10:07:40.038Z,5.80
2023-03-05T10:10:16.737Z,3.40
2023-03-05T10:12:43.457Z,2.90
2023-03-05T10:14:57.128Z,3.40
2023-03-05T10:17:18.833Z,3.40
2023-03-05T10:19:48.178Z,3.60
2023-03-05T10:22:27.083Z,3.40
2023-03-05T10:24:57.057Z,4.70
2023-03-05T10:27:19.925Z,5.70
2023-03-05T10:29:54.942Z,3.10
2023-03-05T10:32:25.136Z,3.40
2023-03-05T10:35:01.978Z,8.30
2023-03-05T10:37:33.095Z,4.20
2023-03-05T10:39:54.698Z,9.70
2023-03-05T10:42:52.352Z,7.80
2023-03-05T10:45:33.241Z,6.60
2023-03-05T10:47:52.203Z,4.70
2023-03-05T10:50:17.622Z,6.50
2023-03-05T10:52:35.232Z,5.20
2023-03-05T10:54:48.162Z,10.30
2023-03-05T10:57:28.207Z,7.90
2023-03-05T10:59:52.934Z,10.20
2023-03-05T11:02:08.804Z,8.60
2023-03-05T11:04:31.996Z,3.20
2023-03-05T11:06:45.863Z,3.40
2023-03-05T11:09:19.751Z,3.20
2023-03-05T11:11:33.319Z,3.30
2023-03-05T11:14:02.251Z,3.40
2023-03-05T11:16:22.126Z,7.50
2023-03-05T11:18:34.771Z,4.10
2023-03-05T11:20:47.700Z,3.70
2023-03-05T11:23:15.293Z,3.30
2023-03-05T11:25:28.057Z,4.30
2023-03-05T11:27:58.938Z,5.50
2023-03-05T11:30:26.661Z,5.50
2023-03-05T11:32:39.213Z,8.20
2023-03-05T11:34:53.618Z,5.00
2023-03-05T11:37:06.613Z,8.10
2023-03-05T11:39:24.677Z,4.80
2023-03-05T11:41:42.136Z,4.40
2023-03-05T11:43:55.669Z,3.70
2023-03-05T11:46:12.406Z,3.90
2023-03-05T11:48:29.022Z,3.50
2023-03-05T11:50:43.756Z,3.70
2023-03-05T11:53:04.563Z,4.10
2023-03-05T11:55:46.396Z,4.00
2023-03-05T11:58:17.517Z,4.50
2023-03-05T12:00:32.606Z,4.30
2023-03-05T12:02:50.093Z,4.50
2023-03-05T12:05:04.408Z,4.20
2023-03-05T12:07:23.327Z,4.70
2023-03-05T12:10:02.583Z,5.00
2023-03-05T12:12:40.096Z,3.70
2023-03-05T12:15:09.325Z,6.40
2023-03-05T12:17:29.122Z,6.30
2023-03-05T12:20:06.330Z,5.00
2023-03-05T12:22:22.856Z,4.30
2023-03-05T12:24:37.438Z,4.70
2023-03-05T12:26:52.990Z,4.50
2023-03-05T12:29:05.629Z,4.10
2023-03-05T12:31:40.034Z,4.30
2023-03-05T12:33:52.851Z,4.50
2023-03-05T12:36:17.791Z,7.60
2023-03-05T12:38:34.245Z,6.30
2023-03-05T12:40:47.299Z,4.60
2023-03-05T12:43:04.757Z,5.50
2023-03-05T12:45:19.465Z,5.10
2023-03-05T12:47:32.036Z,7.00
2023-03-05T12:49:46.499Z,8.60
2023-03-05T12:52:02.026Z,6.10
2023-03-05T12:54:39.630Z,6.00
2023-03-05T12:56:53.670Z,4.80
2023-03-05T12:59:06.280Z,4.30
2023-03-05T13:01:42.643Z,4.20
2023-03-05T13:04:00.155Z,6.00
2023-03-05T13:06:32.504Z,5.00
2023-03-05T13:08:56.376Z,5.30
2023-03-05T13:11:18.594Z,4.30
2023-03-05T13:13:35.851Z,3.80
2023-03-05T13:15:50.404Z,5.50
2023-03-05T13:18:07.462Z,3.90
2023-03-05T13:20:33.910Z,4.60
2023-03-05T13:22:46.554Z,2.50
2023-03-05T13:25:20.434Z,4.70
2023-03-05T13:27:33.220Z,3.20
2023-03-05T13:29:53.042Z,2.70
2023-03-05T13:32:31.567Z,2.50
2023-03-05T13:34:48.153Z,2.40
2023-03-05T13:37:15.104Z,3.00
2023-03-05T13:39:33.114Z,3.20
2023-03-05T13:41:56.113Z,2.80
2023-03-05T13:44:20.861Z,3.20
2023-03-05T13:46:36.499Z,4.10
2023-03-05T13:48:49.147Z,4.60
2023-03-05T13:51:06.796Z,4.40
2023-03-05T13:53:31.775Z,4.10
2023-03-05T13:55:45.338Z,4.40
2023-03-05T13:57:58.940Z,6.30
2023-03-05T14:00:39.022Z,6.70
2023-03-05T14:02:53.020Z,3.80
2023-03-05T14:05:15.016Z,4.00
2023-03-05T14:07:54.799Z,5.50
2023-03-05T14:10:40.091Z,36.30
2023-03-05T14:12:52.905Z,10.80
2023-03-05T14:15:24.467Z,14.30
2023-03-05T14:17:41.018Z,3.50
2023-03-05T14:20:08.279Z,3.50
2023-03-05T14:22:35.605Z,3.30
2023-03-05T14:24:53.971Z,3.60
2023-03-05T14:27:13.228Z,7.50
2023-03-05T14:29:28.638Z,5.30
2023-03-05T14:32:00.248Z,3.20
2023-03-05T14:34:21.166Z,3.70
2023-03-05T14:36:34.219Z,5.30
2023-03-05T14:38:46.834Z,13.40
2023-03-05T14:41:41.559Z,8.80
2023-03-05T14:43:55.938Z,5.10
2023-03-05T14:46:11.635Z,4.70
2023-03-05T14:48:24.758Z,3.50
2023-03-05T14:50:46.553Z,4.00
2023-03-05T14:53:05.926Z,7.50
2023-03-05T14:55:25.384Z,4.70
2023-03-05T14:57:37.993Z,4.80
2023-03-05T14:59:50.721Z,4.30
2023-03-05T15:02:03.457Z,4.10
2023-03-05T15:04:19.037Z,3.80
2023-03-05T15:06:36.611Z,3.80
2023-03-05T15:08:49.162Z,3.40
2023-03-05T15:11:03.459Z,4.00
2023-03-05T15:13:16.649Z,4.40
2023-03-05T15:15:29.302Z,5.80
2023-03-05T15:17:47.355Z,6.10
2023-03-05T15:20:00.803Z,5.30
2023-03-05T15:22:14.364Z,5.90
2023-03-05T15:24:26.931Z,6.00
2023-03-05T15:26:39.722Z,6.90
2023-03-05T15:28:52.288Z,6.80
2023-03-05T15:31:06.526Z,4.80
2023-03-05T15:33:19.237Z,4.10
2023-03-05T15:35:32.350Z,5.20
2023-03-05T15:37:44.889Z,4.30
2023-03-05T15:39:57.380Z,5.30
2023-03-05T15:42:09.940Z,7.40
2023-03-05T15:44:22.648Z,7.50
2023-03-05T15:46:35.550Z,7.40
2023-03-05T15:48:50.168Z,6.10
2023-03-05T15:51:06.433Z,5.30
2023-03-05T15:53:20.124Z,5.80
2023-03-05T15:55:32.714Z,4.80
2023-03-05T15:57:50.932Z,3.80
2023-03-05T16:00:07.361Z,4.50
2023-03-05T16:02:20.035Z,5.90
2023-03-05T16:04:32.704Z,9.20
2023-03-05T16:06:48.724Z,15.90
2023-03-05T16:09:05.218Z,29.60
2023-03-05T16:11:18.539Z,26.70
2023-03-05T16:13:32.401Z,22.20
2023-03-05T16:15:47.112Z,22.70
2023-03-05T16:18:04.792Z,30.80
2023-03-05T16:20:17.682Z,21.10
2023-03-05T16:22:30.797Z,18.40
2023-03-05T16:24:43.356Z,16.90
2023-03-05T16:26:59.721Z,17.70
2023-03-05T16:29:16.159Z,20.10
2023-03-05T16:31:34.074Z,13.50
2023-03-05T16:33:46.608Z,8.80
2023-03-05T16:36:30.235Z,10.70
2023-03-05T16:38:42.805Z,15.30
2023-03-05T16:41:07.910Z,21.10
2023-03-05T16:43:21.198Z,14.30
2023-03-05T16:45:34.263Z,14.30
2023-03-05T16:47:46.801Z,13.30
2023-03-05T16:50:00.870Z,9.70
2023-03-05T16:52:19.138Z,10.70
2023-03-05T16:54:34.125Z,8.10
2023-03-05T16:56:47.022Z,13.30
2023-03-05T16:59:00.128Z,7.80
2023-03-05T17:01:16.888Z,9.20
2023-03-05T17:03:30.000Z,11.20
2023-03-05T17:05:42.961Z,13.90
2023-03-05T17:07:55.805Z,27.20
2023-03-05T17:10:09.342Z,15.00
2023-03-05T17:12:23.204Z,10.40
2023-03-05T17:14:35.882Z,29.60
2023-03-05T17:16:48.877Z,24.20
2023-03-05T17:19:01.469Z,16.30
2023-03-05T17:21:15.041Z,14.60
2023-03-05T17:23:27.932Z,14.10
2023-03-05T17:25:40.676Z,12.40
2023-03-05T17:27:53.379Z,16.10
2023-03-05T17:30:08.307Z,27.60
2023-03-05T17:32:20.836Z,14.20
2023-03-05T17:34:36.708Z,9.50
2023-03-05T17:36:50.449Z,5.30
2023-03-05T17:39:04.550Z,5.10
2023-03-05T17:41:18.551Z,5.20
2023-03-05T17:43:31.561Z,6.00
2023-03-05T17:45:44.596Z,6.00
2023-03-05T17:47:58.717Z,11.70
2023-03-05T17:50:13.404Z,13.60
2023-03-05T17:52:26.406Z,14.50
2023-03-05T17:54:38.896Z,34.10
2023-03-05T17:56:56.345Z,28.00
2023-03-05T17:59:08.911Z,18.30
2023-03-05T18:01:29.273Z,24.30
2023-03-05T18:03:41.910Z,6.60
2023-03-05T18:05:54.579Z,5.30
2023-03-05T18:08:07.670Z,10.80
2023-03-05T18:10:21.756Z,5.60
2023-03-05T18:12:34.470Z,7.30
2023-03-05T18:14:46.982Z,6.60
2023-03-05T18:17:00.360Z,8.10
2023-03-05T18:19:16.118Z,8.10
2023-03-05T18:21:29.133Z,8.70
2023-03-05T18:23:42.039Z,21.10
2023-03-05T18:25:55.002Z,22.50
2023-03-05T18:28:10.931Z,16.30
2023-03-05T18:30:23.814Z,17.60
2023-03-05T18:32:36.955Z,26.50
2023-03-05T18:34:51.374Z,11.70
2023-03-05T18:37:04.137Z,11.10
2023-03-05T18:39:18.633Z,12.50
2023-03-05T18:41:31.462Z,13.30
2023-03-05T18:43:44.046Z,13.80
2023-03-05T18:45:57.013Z,12.60
2023-03-05T18:48:09.630Z,12.30
2023-03-05T18:50:25.303Z,14.60
2023-03-05T18:52:37.865Z,16.20
2023-03-05T18:54:50.397Z,16.50
2023-03-05T18:57:02.997Z,15.40
2023-03-05T18:59:15.542Z,14.30
2023-03-05T19:01:28.529Z,17.30
2023-03-05T19:03:41.142Z,15.70
2023-03-05T19:05:53.813Z,15.60
2023-03-05T19:08:07.872Z,14.00
2023-03-05T19:10:22.671Z,12.10
2023-03-05T19:12:45.250Z,11.20
2023-03-05T19:14:59.380Z,12.80
2023-03-05T19:17:12.067Z,13.70
2023-03-05T19:19:24.782Z,15.00
2023-03-05T19:21:37.346Z,18.70
2023-03-05T19:23:49.904Z,22.50
2023-03-05T19:26:03.470Z,14.90
2023-03-05T19:28:16.023Z,18.50
2023-03-05T19:30:28.580Z,18.80
2023-03-05T19:32:41.269Z,11.70
2023-03-05T19:34:57.958Z,10.20
2023-03-05T19:37:11.905Z,12.00
2023-03-05T19:39:24.746Z,10.60
2023-03-05T19:41:37.375Z,10.90
2023-03-05T19:43:50.109Z,9.60
2023-03-05T19:46:05.569Z,9.30
2023-03-05T19:48:19.087Z,9.40
2023-03-05T19:50:33.546Z,10.00
2023-03-05T19:52:46.998Z,16.40
2023-03-05T19:54:59.991Z,18.20
2023-03-05T19:57:12.949Z,23.90
2023-03-05T19:59:26.088Z,24.00
2023-03-05T20:01:38.726Z,13.20
2023-03-05T20:03:54.321Z,9.60
2023-03-05T20:06:07.729Z,9.40
2023-03-05T20:08:20.336Z,8.00
2023-03-05T20:10:32.901Z,8.70
2023-03-05T20:12:48.020Z,7.80
2023-03-05T20:15:00.748Z,7.40
2023-03-05T20:17:13.700Z,8.40
2023-03-05T20:19:26.326Z,9.10
2023-03-05T20:21:40.977Z,8.90
2023-03-05T20:23:56.464Z,7.90
2023-03-05T20:26:09.334Z,8.30
2023-03-05T20:28:25.916Z,8.10
2023-03-05T20:30:38.698Z,9.00
2023-03-05T20:32:51.906Z,9.50
2023-03-05T20:35:05.033Z,8.60
2023-03-05T20:37:17.610Z,8.60
2023-03-05T20:39:30.445Z,8.70
2023-03-05T20:41:43.090Z,9.20
2023-03-05T20:43:55.738Z,8.10
2023-03-05T20:46:19.897Z,8.40
2023-03-05T20:48:34.210Z,8.50
2023-03-05T20:50:47.142Z,8.80
2023-03-05T20:53:00.568Z,9.00
2023-03-05T20:55:13.168Z,9.30
2023-03-05T20:57:25.761Z,8.90
2023-03-05T20:59:38.372Z,8.20
2023-03-05T21:01:50.947Z,8.10
2023-03-05T21:04:03.973Z,14.60
2023-03-05T21:06:16.658Z,10.60
2023-03-05T21:08:29.233Z,12.80
2023-03-05T21:10:41.780Z,11.30
2023-03-05T21:12:54.659Z,11.00
2023-03-05T21:15:12.043Z,14.70
2023-03-05T21:17:24.556Z,10.90
2023-03-05T21:19:38.467Z,9.60
2023-03-05T21:21:50.998Z,8.00
2023-03-05T21:24:03.715Z,8.80
2023-03-05T21:26:16.529Z,9.70
2023-03-05T21:28:29.467Z,8.10
2023-03-05T21:30:45.098Z,9.20
2023-03-05T21:33:02.511Z,8.50
2023-03-05T21:35:20.436Z,9.30
2023-03-05T21:37:33.252Z,8.70
2023-03-05T21:39:45.878Z,8.70
2023-03-05T21:41:59.512Z,9.20
2023-03-05T21:44:17.478Z,8.50
2023-03-05T21:46:30.151Z,9.40
2023-03-05T21:48:42.796Z,8.60
2023-03-05T21:50:55.458Z,10.10
2023-03-05T21:53:08.596Z,9.30
2023-03-05T21:55:30.283Z,17.80
2023-03-05T21:57:43.021Z,7.80
2023-03-05T21:59:55.933Z,7.60
2023-03-05T22:02:16.035Z,6.90
2023-03-05T22:04:28.643Z,7.50
2023-03-05T22:06:41.249Z,14.00
2023-03-05T22:08:53.778Z,26.20
2023-03-05T22:11:11.455Z,23.30
2023-03-05T22:13:24.075Z,12.10
2023-03-05T22:15:45.291Z,7.00
2023-03-05T22:17:57.940Z,20.40
2023-03-05T22:20:11.223Z,15.10
2023-03-05T22:22:23.757Z,10.90
2023-03-05T22:24:36.326Z,11.30
2023-03-05T22:26:49.041Z,9.10
2023-03-05T22:29:02.618Z,7.60
2023-03-05T22:31:23.669Z,11.30
2023-03-05T22:33:36.561Z,6.70
2023-03-05T22:35:50.050Z,7.30
2023-03-05T22:38:02.829Z,7.30
2023-03-05T22:40:18.501Z,6.80
2023-03-05T22:42:31.034Z,6.60
2023-03-05T22:44:43.624Z,6.50
2023-03-05T22:46:56.431Z,6.80
2023-03-05T22:49:08.968Z,6.40
2023-03-05T22:51:21.506Z,6.70
2023-03-05T22:53:34.193Z,6.70
2023-03-05T22:55:48.203Z,7.10
2023-03-05T22:58:00.840Z,7.10
2023-03-05T23:00:21.569Z,7.80
2023-03-05T23:02:34.399Z,7.90
2023-03-05T23:04:49.563Z,7.30
2023-03-05T23:07:02.448Z,8.00
2023-03-05T23:09:15.077Z,8.20
2023-03-05T23:11:27.707Z,8.30
2023-03-05T23:13:40.837Z,12.60
2023-03-05T23:15:53.402Z,8.00
2023-03-05T23:18:06.664Z,8.20
2023-03-05T23:20:22.062Z,8.70
2023-03-05T23:22:36.758Z,8.50
2023-03-05T23:24:49.346Z,9.40
2023-03-05T23:27:05.307Z,12.60
2023-03-05T23:29:17.901Z,11.40
2023-03-05T23:31:30.572Z,15.00
2023-03-05T23:33:43.136Z,11.60
2023-03-05T23:35:58.965Z,19.90
2023-03-05T23:38:13.332Z,13.70
2023-03-05T23:40:31.777Z,8.30
2023-03-05T23:42:44.555Z,8.40
2023-03-05T23:44:57.154Z,11.30
2023-03-05T23:47:09.676Z,12.60
2023-03-05T23:49:22.239Z,12.70
2023-03-05T23:51:34.810Z,15.00
2023-03-05T23:53:48.357Z,9.80
2023-03-05T23:56:01.499Z,8.90
2023-03-05T23:58:14.440Z,9.60
